SBRJ/SDU METAR and TAF weather

Enter ICAO airport designator
Station Type Date Time Source
SBRJ METAR 2019/08/25 07:00 UTC NOAA

SBRJ 250700Z 30004KT 6000 SCT018 OVC030 19/19 Q1024


Station Type Date Time Source
SBRJ Decoded METAR 2019/08/25 07:00 UTC NOAA

Station name not available
Aug 25, 2019 - 03:00 AM EDT / 2019.08.25 0700 UTC
Wind: from the WNW (300 degrees) at 5 MPH (4 KT):0
Visibility: 3 mile(s):0
Sky conditions: overcast
Temperature: 66 F (19 C)
Dew Point: 66 F (19 C)
Relative Humidity: 100%
Pressure (altimeter): 30.24 in. Hg (1024 hPa)
ob: SBRJ 250700Z 30004KT 6000 SCT018 OVC030 19/19 Q1024
cycle: 7

Station Type Date Time Source
SBRJ TAF 2019/08/25 06:33 UTC NOAA

TAF SBRJ 250315Z 2506/2518 24005KT 7000 BKN015 TN17/2509Z TX22/2517Z PROB30 2506/2512 21005KT 4000 DZ BR BKN012
BECMG 2512/2514 15010KT 8000 BKN020
BECMG 2515/2518 13015KT 9999 SCT020
RMK PGS

Example: see airport list